Time;durP1;ratioP1;P1;durP2;ratioP2;P2;SDS_P1;SDS_P2;PMS_P1;PMS_P2;Temp;Humidity;BMP_temperature;BMP_pressure;BME280_temperature;BME280_humidity;BME280_pressure;Samples;Min_cycle;Max_cycle;Signal;HPM_P1;HPM_P2
2023/03/05 00:00:46;;;;;;;1.65;1.15;;;15.60;52.20;;;;;;5111844;28;20607;-58
2023/03/05 00:03:12;;;;;;;3.63;1.40;;;15.60;52.20;;;;;;5112984;28;20263;-58
2023/03/05 00:05:37;;;;;;;4.43;1.55;;;15.60;52.00;;;;;;5113125;28;20264;-57
2023/03/05 00:08:03;;;;;;;2.00;1.13;;;15.60;52.10;;;;;;5112236;28;20176;-57
2023/03/05 00:10:28;;;;;;;2.25;1.27;;;15.60;52.20;;;;;;5113068;28;20200;-57
2023/03/05 00:12:54;;;;;;;1.98;1.08;;;15.50;52.20;;;;;;5112619;28;20168;-57
2023/03/05 00:15:19;;;;;;;1.60;1.10;;;15.60;52.10;;;;;;5112075;28;20165;-57
2023/03/05 00:17:45;;;;;;;2.15;1.20;;;15.60;52.10;;;;;;5112960;28;20269;-58
2023/03/05 00:20:11;;;;;;;3.13;1.20;;;15.60;52.20;;;;;;5112227;28;20181;-58
2023/03/05 00:22:36;;;;;;;2.03;0.93;;;15.50;52.00;;;;;;5112698;28;20248;-58
2023/03/05 00:25:03;;;;;;;1.52;1.40;;;15.50;52.00;;;;;;5112644;28;20252;-58
2023/03/05 00:27:28;;;;;;;2.88;1.20;;;15.50;51.90;;;;;;5112205;28;20177;-56
2023/03/05 00:29:54;;;;;;;2.20;1.10;;;15.50;52.00;;;;;;5112387;28;20234;-55
2023/03/05 00:32:19;;;;;;;1.95;1.20;;;15.50;52.20;;;;;;5112580;28;20181;-56
2023/03/05 00:34:45;;;;;;;1.70;1.10;;;15.50;52.20;;;;;;5111761;28;20255;-58
2023/03/05 00:37:10;;;;;;;1.70;0.95;;;15.50;52.40;;;;;;5112740;28;20177;-57
2023/03/05 00:39:36;;;;;;;2.05;1.10;;;15.40;52.30;;;;;;5112603;28;20631;-58
2023/03/05 00:42:01;;;;;;;1.63;1.15;;;15.40;52.30;;;;;;5111496;28;20190;-58
2023/03/05 00:44:27;;;;;;;1.67;1.05;;;15.40;52.30;;;;;;5114262;28;20177;-58
2023/03/05 00:46:52;;;;;;;2.38;1.10;;;15.40;52.30;;;;;;5116741;28;20177;-58
2023/03/05 00:49:18;;;;;;;2.83;1.23;;;15.40;52.40;;;;;;5115915;28;20619;-57
2023/03/05 00:51:43;;;;;;;3.50;1.42;;;15.40;52.30;;;;;;5116426;28;20183;-55
2023/03/05 00:54:09;;;;;;;3.65;1.40;;;15.50;52.40;;;;;;5116602;28;20650;-55
2023/03/05 00:56:35;;;;;;;1.55;1.05;;;15.40;52.30;;;;;;5115722;28;20311;-57
2023/03/05 00:59:00;;;;;;;1.45;1.10;;;15.40;52.40;;;;;;5116089;28;20208;-57
2023/03/05 01:01:27;;;;;;;2.85;1.35;;;15.40;52.30;;;;;;5116328;28;20165;-58
2023/03/05 01:03:55;;;;;;;1.90;1.20;;;15.40;52.40;;;;;;5115285;28;20584;-58
2023/03/05 01:06:20;;;;;;;1.88;1.17;;;15.40;52.50;;;;;;5116501;28;20177;-57
2023/03/05 01:08:46;;;;;;;1.63;1.23;;;15.40;52.40;;;;;;5115858;28;20556;-56
2023/03/05 01:11:11;;;;;;;1.95;1.13;;;15.30;52.40;;;;;;5115573;28;20627;-57
2023/03/05 01:13:37;;;;;;;1.83;1.02;;;15.40;52.40;;;;;;5115728;28;20264;-56
2023/03/05 01:16:03;;;;;;;1.95;1.15;;;15.30;52.60;;;;;;5115436;28;20170;-58
2023/03/05 01:18:28;;;;;;;2.28;1.23;;;15.30;52.40;;;;;;5115295;28;20213;-58
2023/03/05 01:20:54;;;;;;;1.67;1.20;;;15.30;52.30;;;;;;5115724;28;20216;-57
2023/03/05 01:23:19;;;;;;;1.13;0.93;;;15.30;52.60;;;;;;5116090;28;20177;-57
2023/03/05 01:25:45;;;;;;;1.58;1.17;;;15.30;52.30;;;;;;5114856;28;20397;-55
2023/03/05 01:28:11;;;;;;;1.55;1.10;;;15.30;52.40;;;;;;5114484;28;20173;-56
2023/03/05 01:30:36;;;;;;;1.73;1.20;;;15.30;52.30;;;;;;5114961;28;20180;-57
2023/03/05 01:33:02;;;;;;;2.28;1.17;;;15.30;52.40;;;;;;5114194;28;20192;-57
2023/03/05 01:35:28;;;;;;;2.88;1.27;;;15.30;52.30;;;;;;5115971;28;20571;-58
2023/03/05 01:37:53;;;;;;;3.17;1.70;;;15.30;52.20;;;;;;5114677;28;20735;-57
2023/03/05 01:40:26;;;;;;;2.50;1.50;;;15.30;52.20;;;;;;5115699;28;20188;-57
2023/03/05 01:43:19;;;;;;;1.52;1.05;;;15.30;52.30;;;;;;5115579;28;20180;-58
2023/03/05 01:46:22;;;;;;;2.67;1.05;;;15.20;52.30;;;;;;5103735;28;20180;-58
2023/03/05 01:48:53;;;;;;;1.63;1.02;;;15.20;52.30;;;;;;5115532;28;20169;-58
2023/03/05 01:51:18;;;;;;;1.55;1.20;;;15.20;52.30;;;;;;5098137;28;20177;-56
2023/03/05 01:53:44;;;;;;;1.95;1.20;;;15.20;52.20;;;;;;5113499;28;20165;-57
2023/03/05 01:56:10;;;;;;;2.63;1.00;;;15.30;52.30;;;;;;5113614;28;20267;-56
2023/03/05 01:58:35;;;;;;;1.63;1.02;;;15.20;52.20;;;;;;5114099;28;20220;-57
2023/03/05 02:01:01;;;;;;;2.33;1.17;;;15.20;52.10;;;;;;5114579;28;20182;-58
2023/03/05 02:03:26;;;;;;;1.10;1.00;;;15.20;52.10;;;;;;5114205;28;20173;-57
2023/03/05 02:05:52;;;;;;;1.33;1.05;;;15.20;51.90;;;;;;5114315;28;20177;-58
2023/03/05 02:08:19;;;;;;;2.90;1.10;;;15.20;51.90;;;;;;5115364;28;20196;-57
2023/03/05 02:10:49;;;;;;;2.38;1.20;;;15.20;51.90;;;;;;5113931;28;20177;-57
2023/03/05 02:13:21;;;;;;;2.58;1.20;;;15.10;51.80;;;;;;5113546;28;20184;-57
2023/03/05 02:15:48;;;;;;;2.42;1.40;;;15.10;51.70;;;;;;5113855;28;20234;-58
2023/03/05 02:18:17;;;;;;;1.60;1.25;;;15.20;51.80;;;;;;5113790;28;20228;-58
2023/03/05 02:20:48;;;;;;;4.43;1.30;;;15.10;51.80;;;;;;5113783;28;20181;-58
2023/03/05 02:23:13;;;;;;;1.58;0.98;;;15.10;51.80;;;;;;5115553;28;20173;-57
2023/03/05 02:25:39;;;;;;;1.77;1.13;;;15.10;51.70;;;;;;5115284;28;20173;-57
2023/03/05 02:28:13;;;;;;;1.95;1.17;;;15.10;51.70;;;;;;5114321;28;20256;-56
2023/03/05 02:30:39;;;;;;;1.98;1.15;;;15.10;51.70;;;;;;5098042;28;20204;-57
2023/03/05 02:33:04;;;;;;;2.42;1.10;;;15.10;51.70;;;;;;5114744;28;20585;-58
2023/03/05 02:35:30;;;;;;;2.15;1.20;;;15.10;51.70;;;;;;5114255;28;20263;-57
2023/03/05 02:37:56;;;;;;;1.65;1.10;;;15.10;51.70;;;;;;5114572;28;20288;-58
2023/03/05 02:40:21;;;;;;;3.70;1.23;;;15.10;51.70;;;;;;5114880;28;20216;-57
2023/03/05 02:42:47;;;;;;;2.67;1.08;;;15.10;51.60;;;;;;5113936;28;20165;-58
2023/03/05 02:45:13;;;;;;;2.42;1.45;;;15.10;51.70;;;;;;5114767;28;20189;-59
2023/03/05 02:47:39;;;;;;;1.35;1.20;;;15.10;51.70;;;;;;5114971;28;20184;-55
2023/03/05 02:50:05;;;;;;;2.47;1.27;;;15.10;51.60;;;;;;5113910;28;20256;-55
2023/03/05 02:52:30;;;;;;;1.73;1.13;;;15.00;51.60;;;;;;5113391;28;20601;-56
2023/03/05 02:54:56;;;;;;;1.80;1.30;;;15.10;51.50;;;;;;5113862;28;20643;-55
2023/03/05 02:57:21;;;;;;;1.92;1.17;;;15.00;51.60;;;;;;5114711;28;20166;-57
2023/03/05 02:59:47;;;;;;;1.80;1.48;;;15.00;51.60;;;;;;5114301;28;20170;-57
2023/03/05 03:02:16;;;;;;;2.13;1.08;;;15.00;51.40;;;;;;5113816;28;20184;-56
2023/03/05 03:04:42;;;;;;;2.05;1.40;;;15.00;51.50;;;;;;5114207;28;20577;-58
2023/03/05 03:07:09;;;;;;;2.97;1.42;;;15.00;51.50;;;;;;5113802;28;20180;-57
2023/03/05 03:09:34;;;;;;;1.70;1.13;;;15.00;51.60;;;;;;5113837;28;20173;-56
2023/03/05 03:12:01;;;;;;;1.58;1.15;;;15.00;51.60;;;;;;5114157;28;20222;-56
2023/03/05 03:14:26;;;;;;;1.92;1.10;;;15.00;51.50;;;;;;5114216;28;20208;-55
2023/03/05 03:16:55;;;;;;;2.28;1.60;;;15.00;51.50;;;;;;5113146;28;20193;-58
2023/03/05 03:19:20;;;;;;;1.98;1.17;;;15.00;51.50;;;;;;5114282;28;20266;-57
2023/03/05 03:21:46;;;;;;;1.85;1.10;;;15.00;51.60;;;;;;5113688;28;20695;-58
2023/03/05 03:24:11;;;;;;;1.83;1.30;;;14.90;51.50;;;;;;5113482;28;20650;-56
2023/03/05 03:26:37;;;;;;;1.25;0.85;;;15.00;51.60;;;;;;5114191;28;20632;-56
2023/03/05 03:29:02;;;;;;;2.28;1.40;;;14.90;51.60;;;;;;5113953;28;20658;-57
2023/03/05 03:31:28;;;;;;;2.97;1.20;;;14.90;51.50;;;;;;5113195;28;20165;-55
2023/03/05 03:33:53;;;;;;;2.35;1.00;;;14.90;51.50;;;;;;5113620;28;20707;-56
2023/03/05 03:36:19;;;;;;;3.28;1.42;;;14.90;51.50;;;;;;5114189;28;20261;-57
2023/03/05 03:38:44;;;;;;;3.88;1.20;;;14.90;51.60;;;;;;5112895;28;20216;-58
2023/03/05 03:41:10;;;;;;;2.63;1.20;;;14.90;51.50;;;;;;5113874;28;20165;-57
2023/03/05 03:43:36;;;;;;;1.70;1.02;;;15.00;51.50;;;;;;5113706;28;20229;-58
2023/03/05 03:46:05;;;;;;;1.85;1.00;;;14.90;51.50;;;;;;5112622;28;20264;-57
2023/03/05 03:48:34;;;;;;;2.53;1.17;;;14.90;51.50;;;;;;5113981;28;20576;-57
2023/03/05 03:51:03;;;;;;;3.55;1.52;;;14.90;51.50;;;;;;5112933;28;20184;-56
2023/03/05 03:53:29;;;;;;;2.10;1.08;;;14.90;51.60;;;;;;5113146;28;20181;-56
2023/03/05 03:55:57;;;;;;;1.83;1.02;;;14.90;51.60;;;;;;5113398;28;20183;-56
2023/03/05 03:58:23;;;;;;;3.15;1.15;;;14.90;51.50;;;;;;5112892;28;20201;-56
2023/03/05 04:00:48;;;;;;;1.63;1.00;;;14.90;51.60;;;;;;5113256;28;20526;-57
2023/03/05 04:03:14;;;;;;;2.35;1.10;;;14.90;51.60;;;;;;5113580;28;20647;-58
2023/03/05 04:05:39;;;;;;;3.08;1.25;;;14.90;51.60;;;;;;5112896;28;20169;-57
2023/03/05 04:08:10;;;;;;;1.45;1.00;;;14.90;51.60;;;;;;5113238;28;20176;-58
2023/03/05 04:10:36;;;;;;;2.65;1.40;;;14.80;51.50;;;;;;5113396;28;20234;-57
2023/03/05 04:13:02;;;;;;;1.20;1.05;;;14.80;51.50;;;;;;5112437;28;20216;-57
2023/03/05 04:15:27;;;;;;;2.22;1.20;;;14.80;51.50;;;;;;5113504;28;20579;-58
2023/03/05 04:17:53;;;;;;;2.72;1.23;;;14.80;51.50;;;;;;5112813;28;20690;-57
2023/03/05 04:20:19;;;;;;;1.58;1.02;;;14.80;51.50;;;;;;5112711;28;20627;-57
2023/03/05 04:22:44;;;;;;;3.10;1.33;;;14.80;51.50;;;;;;5112736;28;20308;-56
2023/03/05 04:25:10;;;;;;;1.40;0.88;;;14.80;51.50;;;;;;5113135;28;20204;-57
2023/03/05 04:27:36;;;;;;;2.80;1.30;;;14.80;51.50;;;;;;5112391;28;20196;-56
2023/03/05 04:30:02;;;;;;;1.30;1.05;;;14.70;51.50;;;;;;5113025;28;20173;-56
2023/03/05 04:32:28;;;;;;;2.50;1.20;;;14.80;51.50;;;;;;5113305;28;20177;-57
2023/03/05 04:34:57;;;;;;;1.95;1.00;;;14.80;51.50;;;;;;5112355;28;20183;-56
2023/03/05 04:37:23;;;;;;;2.42;1.20;;;14.80;51.50;;;;;;5113173;28;20173;-58
2023/03/05 04:39:49;;;;;;;1.67;1.15;;;14.80;51.50;;;;;;5112924;28;20253;-58
2023/03/05 04:42:15;;;;;;;3.10;1.33;;;14.80;51.50;;;;;;5112310;28;20635;-58
2023/03/05 04:44:40;;;;;;;2.92;1.13;;;14.80;51.50;;;;;;5113319;28;20169;-58
2023/03/05 04:47:06;;;;;;;1.85;1.13;;;14.80;51.50;;;;;;5112650;28;20635;-57
2023/03/05 04:49:31;;;;;;;2.88;1.25;;;14.70;51.50;;;;;;5112292;28;20177;-57
2023/03/05 04:51:57;;;;;;;2.42;0.90;;;14.70;51.50;;;;;;5112769;28;20654;-57
2023/03/05 04:54:23;;;;;;;3.08;1.27;;;14.70;51.50;;;;;;5113045;28;20252;-55
2023/03/05 04:56:48;;;;;;;2.08;1.38;;;14.70;51.50;;;;;;5111819;28;20192;-56
2023/03/05 04:59:14;;;;;;;1.60;1.02;;;14.70;51.50;;;;;;5112797;28;20208;-57
2023/03/05 05:01:40;;;;;;;3.15;1.45;;;14.70;51.50;;;;;;5112194;28;20264;-58
2023/03/05 05:04:05;;;;;;;1.45;1.23;;;14.70;51.50;;;;;;5112697;28;20658;-57
2023/03/05 05:06:31;;;;;;;2.53;1.48;;;14.70;51.50;;;;;;5112912;28;20169;-56
2023/03/05 05:08:56;;;;;;;2.85;1.00;;;14.70;51.50;;;;;;5111879;28;20201;-56
2023/03/05 05:11:22;;;;;;;2.33;1.10;;;14.70;51.60;;;;;;5112718;28;20181;-57
2023/03/05 05:13:47;;;;;;;2.13;1.05;;;14.70;51.50;;;;;;5112603;28;20173;-58
2023/03/05 05:16:14;;;;;;;1.40;1.20;;;14.70;51.50;;;;;;5112182;28;20169;-57
2023/03/05 05:18:39;;;;;;;1.95;1.10;;;14.70;51.50;;;;;;5112797;28;20217;-58
2023/03/05 05:21:09;;;;;;;3.85;1.50;;;14.70;51.50;;;;;;5112187;28;20216;-58
2023/03/05 05:23:35;;;;;;;2.05;1.42;;;14.70;51.50;;;;;;5111987;28;20254;-57
2023/03/05 05:26:01;;;;;;;1.50;1.20;;;14.60;51.50;;;;;;5112244;28;20639;-56
2023/03/05 05:28:27;;;;;;;2.10;1.25;;;14.60;51.50;;;;;;5112706;28;20538;-57
2023/03/05 05:30:53;;;;;;;1.73;1.30;;;14.60;51.50;;;;;;5113916;28;20176;-56
2023/03/05 05:33:18;;;;;;;2.13;1.00;;;14.60;51.50;;;;;;5116229;28;20238;-58
2023/03/05 05:35:44;;;;;;;2.35;1.27;;;14.60;51.50;;;;;;5116044;28;20177;-58
2023/03/05 05:38:09;;;;;;;1.85;1.00;;;14.60;51.50;;;;;;5115429;28;20201;-57
2023/03/05 05:40:35;;;;;;;2.05;1.38;;;14.60;51.60;;;;;;5116134;28;20181;-58
2023/03/05 05:43:01;;;;;;;1.83;1.30;;;14.60;51.50;;;;;;5115928;28;20339;-58
2023/03/05 05:45:26;;;;;;;1.65;1.00;;;14.60;51.50;;;;;;5115433;28;20248;-58
2023/03/05 05:47:52;;;;;;;2.42;1.23;;;14.60;51.60;;;;;;5115965;28;20542;-58
2023/03/05 05:50:18;;;;;;;2.40;1.48;;;14.60;51.60;;;;;;5116058;28;20565;-57
2023/03/05 05:52:44;;;;;;;2.28;1.40;;;14.60;51.60;;;;;;5114922;28;20195;-57
2023/03/05 05:55:13;;;;;;;1.98;0.90;;;14.60;51.60;;;;;;5115785;28;20169;-58
2023/03/05 05:57:38;;;;;;;1.48;1.10;;;14.60;51.60;;;;;;5115652;28;20296;-58
2023/03/05 06:00:05;;;;;;;2.05;1.20;;;14.60;51.70;;;;;;5114999;28;20256;-58
2023/03/05 06:02:31;;;;;;;1.85;1.23;;;14.60;51.70;;;;;;5115739;28;20204;-58
2023/03/05 06:04:56;;;;;;;2.35;1.30;;;14.60;51.50;;;;;;5114726;28;20177;-58
2023/03/05 06:07:22;;;;;;;1.27;1.00;;;14.70;51.70;;;;;;5115598;28;20192;-58
2023/03/05 06:09:47;;;;;;;1.65;1.10;;;14.80;51.50;;;;;;5115303;28;20279;-57
2023/03/05 06:12:13;;;;;;;2.35;1.48;;;14.80;51.10;;;;;;5114385;28;20267;-58
2023/03/05 06:14:39;;;;;;;2.25;1.30;;;14.90;51.00;;;;;;5115213;28;20173;-57
2023/03/05 06:17:07;;;;;;;2.25;1.25;;;15.10;50.90;;;;;;5115258;28;20184;-58
2023/03/05 06:19:32;;;;;;;1.95;1.20;;;15.30;50.80;;;;;;5114561;28;20232;-58
2023/03/05 06:21:58;;;;;;;1.98;1.30;;;15.40;50.60;;;;;;5114960;28;20255;-57
2023/03/05 06:24:23;;;;;;;1.60;0.93;;;15.50;50.50;;;;;;5115470;28;20204;-58
2023/03/05 06:26:49;;;;;;;2.75;1.10;;;15.70;50.30;;;;;;5114461;28;20201;-57
2023/03/05 06:29:15;;;;;;;1.60;0.98;;;15.70;50.20;;;;;;5115297;28;20173;-56
2023/03/05 06:31:40;;;;;;;1.33;1.00;;;15.80;50.00;;;;;;5115187;28;20211;-57
2023/03/05 06:34:06;;;;;;;1.15;1.00;;;15.90;50.00;;;;;;5114023;28;20310;-57
2023/03/05 06:36:31;;;;;;;2.30;1.42;;;16.00;50.00;;;;;;5115021;28;20275;-56
2023/03/05 06:38:57;;;;;;;1.40;0.80;;;16.00;50.00;;;;;;5114550;28;20209;-57
2023/03/05 06:41:27;;;;;;;1.65;0.80;;;16.00;49.90;;;;;;5114400;28;20612;-57
2023/03/05 06:43:53;;;;;;;1.38;0.85;;;16.10;49.90;;;;;;5114640;28;20254;-58
2023/03/05 06:46:20;;;;;;;0.90;0.80;;;15.70;49.70;;;;;;5115043;28;20173;-58
2023/03/05 06:48:46;;;;;;;1.10;0.70;;;16.10;49.90;;;;;;5113780;28;20635;-58
2023/03/05 06:51:16;;;;;;;1.85;1.02;;;16.20;49.90;;;;;;5114835;28;20176;-57
2023/03/05 06:53:42;;;;;;;1.48;0.80;;;16.20;49.90;;;;;;5114740;28;20177;-57
2023/03/05 06:56:08;;;;;;;1.35;0.90;;;16.20;49.90;;;;;;5114110;28;20196;-57
2023/03/05 06:58:34;;;;;;;1.15;0.70;;;16.20;49.90;;;;;;5114230;28;20743;-57
2023/03/05 07:00:59;;;;;;;1.73;0.98;;;16.20;49.90;;;;;;5114161;28;20173;-58
2023/03/05 07:03:25;;;;;;;1.15;0.82;;;16.20;50.00;;;;;;5113672;28;20169;-58
2023/03/05 07:05:53;;;;;;;1.00;0.60;;;16.20;50.00;;;;;;5114214;28;20181;-56
2023/03/05 07:08:19;;;;;;;1.17;0.77;;;16.20;50.10;;;;;;5113826;28;20177;-55
2023/03/05 07:10:44;;;;;;;1.85;0.95;;;16.30;50.70;;;;;;5114268;28;20533;-56
2023/03/05 07:13:10;;;;;;;0.90;0.70;;;16.40;50.00;;;;;;5114351;28;20547;-57
2023/03/05 07:15:37;;;;;;;1.85;0.90;;;16.50;49.80;;;;;;5113426;28;20649;-59
2023/03/05 07:18:02;;;;;;;1.08;0.60;;;16.80;49.50;;;;;;5113877;28;20216;-59
2023/03/05 07:20:28;;;;;;;1.85;0.60;;;17.10;49.00;;;;;;5113943;28;20265;-60
2023/03/05 07:22:54;;;;;;;1.30;1.02;;;17.10;48.70;;;;;;5112949;28;20232;-59
2023/03/05 07:25:20;;;;;;;0.90;0.70;;;17.30;48.70;;;;;;5114332;28;20653;-59
2023/03/05 07:27:46;;;;;;;1.27;0.98;;;17.40;48.60;;;;;;5113763;28;20181;-56
2023/03/05 07:30:12;;;;;;;2.10;0.70;;;17.40;48.50;;;;;;5113321;28;20173;-57
2023/03/05 07:32:37;;;;;;;0.98;0.70;;;17.50;48.30;;;;;;5114001;28;20245;-58
2023/03/05 07:35:03;;;;;;;1.70;0.98;;;17.60;48.20;;;;;;5113526;28;20180;-59
2023/03/05 07:37:29;;;;;;;1.02;0.80;;;17.60;48.20;;;;;;5113023;28;20176;-59
2023/03/05 07:39:54;;;;;;;0.93;0.60;;;17.60;48.20;;;;;;5113649;28;20255;-59
2023/03/05 07:42:20;;;;;;;1.15;0.77;;;17.60;48.30;;;;;;5113883;28;20169;-59
2023/03/05 07:44:48;;;;;;;1.75;0.80;;;17.60;48.30;;;;;;5112862;28;20207;-59
2023/03/05 07:47:13;;;;;;;1.85;0.90;;;17.60;48.30;;;;;;5113888;28;20703;-58
2023/03/05 07:49:40;;;;;;;1.27;0.80;;;17.50;48.50;;;;;;5113682;28;20252;-58
2023/03/05 07:52:06;;;;;;;0.95;0.73;;;17.50;48.40;;;;;;5112680;28;20256;-57
2023/03/05 07:54:36;;;;;;;1.40;0.70;;;17.50;48.50;;;;;;5113355;28;20165;-57
2023/03/05 07:57:05;;;;;;;2.08;1.02;;;17.50;48.60;;;;;;5113278;28;20674;-58
2023/03/05 07:59:30;;;;;;;0.82;0.63;;;17.50;48.60;;;;;;5112787;28;20671;-59
2023/03/05 08:01:56;;;;;;;1.88;0.73;;;17.40;48.60;;;;;;5113229;28;20179;-58
2023/03/05 08:04:22;;;;;;;1.58;0.60;;;17.40;48.70;;;;;;5112853;28;20600;-59
2023/03/05 08:06:48;;;;;;;1.33;0.73;;;17.40;48.80;;;;;;5111864;28;20201;-59
2023/03/05 08:09:14;;;;;;;1.00;0.57;;;17.40;48.90;;;;;;5112676;28;20193;-57
2023/03/05 08:11:40;;;;;;;1.08;0.55;;;17.30;49.00;;;;;;5112632;28;20184;-57
2023/03/05 08:14:05;;;;;;;1.10;0.80;;;17.30;49.10;;;;;;5112850;28;20184;-58
2023/03/05 08:16:31;;;;;;;1.00;0.68;;;17.30;49.10;;;;;;5113253;28;20169;-59
2023/03/05 08:18:57;;;;;;;0.95;0.68;;;17.30;49.10;;;;;;5112057;28;20208;-57
2023/03/05 08:21:32;;;;;;;0.90;0.70;;;17.30;49.20;;;;;;5112932;28;20224;-59
2023/03/05 08:23:58;;;;;;;1.45;0.85;;;17.20;49.20;;;;;;5113147;28;20566;-58
2023/03/05 08:26:24;;;;;;;1.52;0.60;;;17.20;49.30;;;;;;5112732;28;20173;-58
2023/03/05 08:28:50;;;;;;;1.52;0.77;;;17.10;49.30;;;;;;5112999;28;20173;-57
2023/03/05 08:31:16;;;;;;;0.98;0.70;;;17.00;49.40;;;;;;5113106;28;20583;-58
2023/03/05 08:33:42;;;;;;;1.27;0.70;;;17.00;49.60;;;;;;5112286;28;20190;-59
2023/03/05 08:36:08;;;;;;;1.20;0.75;;;17.00;49.70;;;;;;5113196;28;20623;-59
2023/03/05 08:38:34;;;;;;;1.63;1.08;;;17.00;49.80;;;;;;5113172;28;20236;-59
2023/03/05 08:40:59;;;;;;;1.42;0.73;;;17.00;49.80;;;;;;5112054;28;20193;-58
2023/03/05 08:43:25;;;;;;;2.33;0.82;;;17.00;49.80;;;;;;5112931;28;20655;-59
2023/03/05 08:45:52;;;;;;;1.27;0.68;;;17.00;49.90;;;;;;5112254;28;20165;-58
2023/03/05 08:48:18;;;;;;;0.73;0.73;;;17.00;49.90;;;;;;5112272;28;20226;-59
2023/03/05 08:50:43;;;;;;;1.05;0.63;;;17.00;50.00;;;;;;5112829;28;20173;-65
2023/03/05 08:53:09;;;;;;;1.48;0.85;;;17.10;50.00;;;;;;5112396;28;20669;-66
2023/03/05 08:55:35;;;;;;;1.88;0.77;;;17.20;50.10;;;;;;5112016;28;20168;-65
2023/03/05 08:58:00;;;;;;;3.63;1.20;;;17.20;50.20;;;;;;5112586;28;20295;-73
2023/03/05 09:00:26;;;;;;;2.25;0.80;;;17.30;50.50;;;;;;5112738;28;20268;-69
2023/03/05 09:02:52;;;;;;;2.78;1.65;;;17.30;50.40;;;;;;5112074;28;20252;-67
2023/03/05 09:05:18;;;;;;;1.65;0.90;;;17.40;50.50;;;;;;5113701;28;20179;-66
2023/03/05 09:07:43;;;;;;;2.08;0.93;;;17.50;50.50;;;;;;5115229;28;20184;-66
2023/03/05 09:10:12;;;;;;;3.17;0.82;;;17.50;50.40;;;;;;5116682;28;20546;-66
2023/03/05 09:12:37;;;;;;;4.68;1.20;;;17.50;50.50;;;;;;5116422;28;20181;-66
2023/03/05 09:15:06;;;;;;;2.28;1.08;;;17.50;50.40;;;;;;5115465;28;20173;-64
2023/03/05 09:17:32;;;;;;;1.65;0.77;;;17.50;50.40;;;;;;5116669;28;20173;-65
2023/03/05 09:19:57;;;;;;;4.65;1.42;;;17.50;50.50;;;;;;5116289;28;20173;-64
2023/03/05 09:22:23;;;;;;;3.10;0.88;;;17.40;50.50;;;;;;5115150;28;20582;-64
2023/03/05 09:24:48;;;;;;;1.65;0.73;;;17.40;50.70;;;;;;5115751;28;20235;-64
2023/03/05 09:27:14;;;;;;;3.35;0.88;;;17.40;50.80;;;;;;5116016;28;20230;-64
2023/03/05 09:29:39;;;;;;;2.78;0.80;;;17.30;50.90;;;;;;5115285;28;20222;-64
2023/03/05 09:32:05;;;;;;;2.72;1.10;;;17.20;51.10;;;;;;5116131;28;20204;-65
2023/03/05 09:34:31;;;;;;;1.85;0.90;;;17.20;51.10;;;;;;5115868;28;20173;-65
2023/03/05 09:36:57;;;;;;;2.10;0.80;;;17.10;51.20;;;;;;5115310;28;20265;-64
2023/03/05 09:39:23;;;;;;;3.05;0.80;;;17.10;51.40;;;;;;5116195;28;20236;-64
2023/03/05 09:42:17;;;;;;;4.18;0.90;;;17.00;51.30;;;;;;5115703;28;20173;-64
2023/03/05 09:45:02;;;;;;;0.73;0.60;;;17.00;51.50;;;;;;5114051;28;20212;-63
2023/03/05 09:47:44;;;;;;;1.67;0.60;;;17.00;51.50;;;;;;5116018;28;20237;-63
2023/03/05 09:50:33;;;;;;;1.08;0.57;;;16.90;51.60;;;;;;5115148;28;20207;-63
2023/03/05 09:53:12;;;;;;;1.67;0.60;;;16.90;51.50;;;;;;5114657;28;20176;-63
2023/03/05 09:55:41;;;;;;;0.90;0.63;;;16.90;51.80;;;;;;5114516;28;20534;-63
2023/03/05 09:58:10;;;;;;;2.20;0.80;;;16.90;51.80;;;;;;5113608;28;20213;-66
2023/03/05 10:00:50;;;;;;;2.15;0.68;;;16.90;51.90;;;;;;5114509;28;20216;-66
2023/03/05 10:03:24;;;;;;;2.78;0.70;;;16.80;51.70;;;;;;5114583;28;20173;-67
2023/03/05 10:05:55;;;;;;;2.78;0.85;;;16.70;51.90;;;;;;5113428;28;20183;-66
2023/03/05 10:08:23;;;;;;;3.35;1.10;;;16.70;52.30;;;;;;5115758;28;20600;-65
2023/03/05 10:10:51;;;;;;;3.00;0.88;;;16.60;52.30;;;;;;5114085;28;20512;-65
2023/03/05 10:13:31;;;;;;;1.65;1.00;;;16.50;52.20;;;;;;5113590;28;20208;-65
2023/03/05 10:16:06;;;;;;;1.13;0.70;;;16.60;52.20;;;;;;5113685;28;20191;-65
2023/03/05 10:19:19;;;;;;;4.70;1.05;;;16.60;52.30;;;;;;5114639;28;20204;-66
2023/03/05 10:21:55;;;;;;;1.20;0.70;;;16.70;52.20;;;;;;5094256;28;20274;-66
2023/03/05 10:24:29;;;;;;;0.80;0.60;;;16.70;52.10;;;;;;5114117;28;20233;-65
2023/03/05 10:26:58;;;;;;;3.13;0.75;;;16.70;52.00;;;;;;5096385;28;20231;-65
2023/03/05 10:29:56;;;;;;;3.17;0.70;;;16.70;52.10;;;;;;5115125;28;20230;-65
2023/03/05 10:32:53;;;;;;;1.65;0.70;;;16.70;52.00;;;;;;5113274;28;20173;-66
2023/03/05 10:35:35;;;;;;;1.83;0.70;;;16.70;52.00;;;;;;5114196;28;20169;-67
2023/03/05 10:38:36;;;;;;;1.88;0.60;;;16.60;52.00;;;;;;5113411;28;20625;-66
2023/03/05 10:41:20;;;;;;;1.42;0.70;;;16.60;52.10;;;;;;5110770;28;20212;-65
2023/03/05 10:43:53;;;;;;;1.95;0.80;;;16.60;52.10;;;;;;5097091;28;20183;-65
2023/03/05 10:46:20;;;;;;;2.05;0.70;;;16.60;52.10;;;;;;5096621;28;20253;-66
2023/03/05 10:48:57;;;;;;;1.65;0.88;;;16.60;52.10;;;;;;5113116;28;20208;-65
2023/03/05 10:51:34;;;;;;;1.13;0.60;;;16.70;52.10;;;;;;5114693;28;20634;-67
2023/03/05 10:54:13;;;;;;;1.05;0.40;;;16.70;52.00;;;;;;5113669;28;20181;-62
2023/03/05 10:56:39;;;;;;;1.58;0.70;;;16.80;52.10;;;;;;5096852;28;20207;-68
2023/03/05 10:59:04;;;;;;;2.38;0.70;;;16.80;51.90;;;;;;5114072;28;20208;-67
2023/03/05 11:01:31;;;;;;;1.52;0.60;;;16.80;51.90;;;;;;5112982;28;20173;-66
2023/03/05 11:03:56;;;;;;;0.85;0.50;;;16.70;52.00;;;;;;5113500;28;20639;-65
2023/03/05 11:06:35;;;;;;;1.05;0.70;;;16.70;52.00;;;;;;5113901;28;20165;-65
2023/03/05 11:09:18;;;;;;;1.90;0.80;;;16.70;52.00;;;;;;5110232;28;20172;-64
2023/03/05 11:12:05;;;;;;;0.50;0.40;;;16.70;52.10;;;;;;5111251;28;20165;-66
2023/03/05 11:14:32;;;;;;;5.43;0.70;;;16.60;52.10;;;;;;5110537;28;20643;-64
2023/03/05 11:16:58;;;;;;;3.22;1.00;;;16.60;52.10;;;;;;5113170;28;20530;-63
2023/03/05 11:19:34;;;;;;;1.88;0.60;;;16.60;52.10;;;;;;5113264;28;20209;-64
2023/03/05 11:22:15;;;;;;;1.02;0.80;;;16.60;52.20;;;;;;5109560;28;20228;-64
2023/03/05 11:24:42;;;;;;;3.03;0.90;;;16.60;52.20;;;;;;5111938;28;20177;-63
2023/03/05 11:28:03;;;;;;;1.45;0.50;;;16.60;52.10;;;;;;5112291;28;20173;-64
2023/03/05 11:30:33;;;;;;;2.20;0.70;;;16.60;52.10;;;;;;5029481;28;20192;-65
2023/03/05 11:33:06;;;;;;;0.85;0.65;;;16.60;52.00;;;;;;5106804;28;20201;-65
2023/03/05 11:35:33;;;;;;;3.00;1.00;;;16.60;52.10;;;;;;5112204;28;20173;-65
2023/03/05 11:38:03;;;;;;;2.65;1.10;;;16.60;52.10;;;;;;5113242;28;20201;-66
2023/03/05 11:40:30;;;;;;;1.80;0.60;;;16.60;52.30;;;;;;5113698;28;20277;-66
2023/03/05 11:42:58;;;;;;;0.50;0.50;;;16.60;52.10;;;;;;5112620;28;20237;-66
2023/03/05 11:45:24;;;;;;;1.70;0.40;;;16.70;52.10;;;;;;5113697;28;20169;-65
2023/03/05 11:47:51;;;;;;;2.25;0.90;;;16.60;52.10;;;;;;5112178;28;20205;-72
2023/03/05 11:50:24;;;;;;;3.95;0.90;;;16.60;52.10;;;;;;5110568;28;20195;-71
2023/03/05 11:52:56;;;;;;;3.50;0.85;;;16.50;52.10;;;;;;5113238;28;20211;-65
2023/03/05 11:55:41;;;;;;;2.00;0.70;;;16.50;52.20;;;;;;5113191;28;20561;-66
2023/03/05 11:58:14;;;;;;;1.20;0.70;;;16.40;52.10;;;;;;5111624;28;20203;-66
2023/03/05 12:00:42;;;;;;;2.05;0.82;;;16.40;52.10;;;;;;5112414;28;20177;-67
2023/03/05 12:03:12;;;;;;;1.50;0.60;;;16.30;52.20;;;;;;5112183;28;20173;-67
2023/03/05 12:05:40;;;;;;;1.75;0.70;;;16.40;52.20;;;;;;5111701;28;20542;-66
2023/03/05 12:08:09;;;;;;;1.27;0.80;;;16.30;52.20;;;;;;5111876;28;20173;-65
2023/03/05 12:10:35;;;;;;;3.22;0.65;;;16.30;52.20;;;;;;5111535;28;20233;-65
2023/03/05 12:13:07;;;;;;;2.28;0.75;;;16.30;52.30;;;;;;5113134;28;20191;-65
2023/03/05 12:16:05;;;;;;;0.55;0.47;;;16.30;52.30;;;;;;5111972;28;20177;-66
2023/03/05 12:18:38;;;;;;;0.98;0.77;;;16.30;52.30;;;;;;5111044;28;20205;-66
2023/03/05 12:21:14;;;;;;;0.63;0.40;;;16.30;52.30;;;;;;5112669;28;20725;-64
2023/03/05 12:23:44;;;;;;;2.28;0.70;;;16.20;52.30;;;;;;5111958;28;20634;-66
2023/03/05 12:26:09;;;;;;;1.00;0.70;;;16.30;52.40;;;;;;5112326;28;20209;-65
2023/03/05 12:28:35;;;;;;;2.33;1.00;;;16.30;52.30;;;;;;5111845;28;20588;-64
2023/03/05 12:31:05;;;;;;;2.17;0.73;;;16.30;52.50;;;;;;5112527;28;20988;-66
2023/03/05 12:33:40;;;;;;;3.15;0.90;;;16.20;52.60;;;;;;5112334;28;20179;-71
2023/03/05 12:36:21;;;;;;;2.05;0.80;;;16.30;52.60;;;;;;5121278;28;20176;-70
2023/03/05 12:38:56;;;;;;;1.30;0.60;;;16.30;52.40;;;;;;5120316;27;20248;-71
2023/03/05 12:41:21;;;;;;;1.38;0.73;;;16.30;52.30;;;;;;5136686;27;20236;-69
2023/03/05 12:44:05;;;;;;;1.17;0.60;;;16.30;52.50;;;;;;5123710;27;20623;-70
2023/03/05 12:46:37;;;;;;;1.75;0.60;;;16.20;52.60;;;;;;5116037;28;20651;-68
2023/03/05 12:49:26;;;;;;;1.90;0.70;;;16.30;52.60;;;;;;5116981;28;20173;-68
2023/03/05 12:51:53;;;;;;;1.73;0.70;;;16.20;52.60;;;;;;5126988;27;20180;-68
2023/03/05 12:54:27;;;;;;;1.08;0.60;;;16.20;52.60;;;;;;5122771;27;20177;-69